Weather at Berz-Macomb Airport [CLOSED]

Public forecast

Using degrees Fahrenheit for public forecast. Weather courtesy of forecast.io.

Closest aviation weather report (METAR) to Berz-Macomb Airport

Closest report is Selfridge Air National Guard Base Airport, 6.4 nm (11.9 km) ESE.

2024/04/23 10:56 (retrieved 41 minutes ago)

KMTC 231056Z 18012KT 10SM FEW110 SCT130 BKN160 11/03 A2982 RMK AO2A SLP103 T01090025

Closest aviation forecast (TAF) to Berz-Macomb Airport

Forecast is more than 12 hours old.

Closest forecast is Selfridge Air National Guard Base Airport, 6.4 nm (11.9 km) ESE.

2024/04/22 19:20 (retrieved 16 hours ago)

TAF KMTC 221900Z 2219/2401 20010G15KT 9999 FEW055 QNH3000INS BECMG 2220/2221 21010G15KT 9999 BKN065 620653 QNH2994INS BECMG 2305/2306 20012G18KT 9999 FEW060 BKN120 520204 QNH2980INS BECMG 2313/2314 20020G30KT 9999 FEW030 BKN045 OVC065 620809 510003 QNH2975INS BECMG 2318/2319 22015G25KT 9000 -SHRA BKN025 OVC110 QNH2975INS TX18/2220Z TN09/2311Z LAST NO AMDS AFT 2303 NEXT 2311